Mehmet Bey — 9HUD6 — position and weather

sailwx.info

Track history (hours):
 
Tides and Currents Weather Stations Pressure Air Temp Water Temp Dewpoint Dewpoint Depression Visibility Wind Speed Wind Dir Waves Ship Positions

Mehmet Bey

Last reported at 2016-Jun-25 22:32 UTC. Time now 2016-Jun-29 22:00 UTC.
Position N 31°23' E 030°06'.

; draft 7.3 m.

Type: Cargo ship. MMSI: 248864000.

Date/timePositionNaut miles runAvg speedWind from/ knotsBaromVisibWave heightAir tempDewpointWater temp
2016-Jun-25 22:32N 31°23' E 030°06'0 0.0
2016-Jun-25 21:08N 31°23' E 030°06'26 0.6
2016-Jun-24 01:15N 31°47' E 029°53'6 8.3
2016-Jun-24 00:33N 31°53' E 029°52'  
2016-Jun-20 12:18N 40°51' E 028°46'7 8.2
2016-Jun-20 11:25N 40°56' E 028°53'2 1.5
2016-Jun-20 10:22N 40°57' E 028°54'  
2016-Jun-17 23:11N 44°54' E 030°34'23 8.1
2016-Jun-17 20:24N 45°16' E 030°42'8 7.9
2016-Jun-17 19:26N 45°23' E 030°45'7 8.0
2016-Jun-17 18:33N 45°30' E 030°48'8 8.0
2016-Jun-17 17:33N 45°37' E 030°53'32 8.1
2016-Jun-17 13:33N 46°09' E 031°02'9 8.4
2016-Jun-17 12:32N 46°15' E 030°54'9 8.6
2016-Jun-17 11:32N 46°24' E 030°55'8 8.1
2016-Jun-17 10:31N 46°32' E 030°56'33 8.3
2016-Jun-17 06:33N 46°36' E 031°43'9 8.7
2016-Jun-17 05:33N 46°34' E 031°56'8 8.4
2016-Jun-17 04:33N 46°32' E 032°07'9 8.6
2016-Jun-17 03:31N 46°33' E 032°20'10 7.9
2016-Jun-17 02:17N 46°36' E 032°34'  
Track history (hours):
 
Tides and Currents Weather Stations Pressure Air Temp Water Temp Dewpoint Dewpoint Depression Visibility Wind Speed Wind Dir Waves Ship Positions

Mehmet Bey

Last reported at 2016-Jun-25 22:32 UTC. Time now 2016-Jun-29 22:00 UTC.
Position N 31°23' E 030°06'.

; draft 7.3 m.

Type: Cargo ship. MMSI: 248864000.

Date/timePositionNaut miles runAvg speedWind from/ knotsBaromVisibWave heightAir tempDewpointWater temp
2016-Jun-25 22:32N 31°23' E 030°06'0 0.0
2016-Jun-25 21:08N 31°23' E 030°06'26 0.6
2016-Jun-24 01:15N 31°47' E 029°53'6 8.3
2016-Jun-24 00:33N 31°53' E 029°52'  
2016-Jun-20 12:18N 40°51' E 028°46'7 8.2
2016-Jun-20 11:25N 40°56' E 028°53'2 1.5
2016-Jun-20 10:22N 40°57' E 028°54'  
2016-Jun-17 23:11N 44°54' E 030°34'23 8.1
2016-Jun-17 20:24N 45°16' E 030°42'8 7.9
2016-Jun-17 19:26N 45°23' E 030°45'7 8.0
2016-Jun-17 18:33N 45°30' E 030°48'8 8.0
2016-Jun-17 17:33N 45°37' E 030°53'32 8.1
2016-Jun-17 13:33N 46°09' E 031°02'9 8.4
2016-Jun-17 12:32N 46°15' E 030°54'9 8.6
2016-Jun-17 11:32N 46°24' E 030°55'8 8.1
2016-Jun-17 10:31N 46°32' E 030°56'33 8.3
2016-Jun-17 06:33N 46°36' E 031°43'9 8.7
2016-Jun-17 05:33N 46°34' E 031°56'8 8.4
2016-Jun-17 04:33N 46°32' E 032°07'9 8.6
2016-Jun-17 03:31N 46°33' E 032°20'10 7.9
2016-Jun-17 02:17N 46°36' E 032°34'  

Dump ship's entire track history